Time;durP1;ratioP1;P1;durP2;ratioP2;P2;SDS_P1;SDS_P2;PMS_P1;PMS_P2;Temp;Humidity;BMP_temperature;BMP_pressure;BME280_temperature;BME280_humidity;BME280_pressure;Samples;Min_cycle;Max_cycle;Signal;HPM_P1;HPM_P2
2021/05/04 00:02:06;;;;;;;11.32;4.43;;;7.70;99.90;;;8.56;71.16;100736.72;5056786;28;20225;-74
2021/05/04 00:04:32;;;;;;;12.65;5.10;;;7.70;99.90;;;8.57;70.86;100730.63;5059158;28;20219;-74
2021/05/04 00:06:59;;;;;;;17.05;5.72;;;7.70;99.90;;;8.56;70.64;100731.53;5066497;28;20205;-74
2021/05/04 00:09:26;;;;;;;13.70;5.47;;;7.70;99.90;;;8.53;70.56;100729.88;5062496;28;20196;-73
2021/05/04 00:11:53;;;;;;;15.57;5.30;;;7.70;99.90;;;8.50;70.43;100721.28;5066934;28;20211;-74
2021/05/04 00:14:20;;;;;;;13.38;4.47;;;7.70;99.90;;;8.53;70.29;100726.41;5063343;28;20648;-74
2021/05/04 00:16:46;;;;;;;15.98;5.40;;;7.70;99.90;;;8.59;70.31;100721.03;5065500;28;20303;-74
2021/05/04 00:19:14;;;;;;;14.70;4.78;;;7.70;99.90;;;8.61;70.01;100716.59;5062859;28;20191;-74
2021/05/04 00:21:40;;;;;;;15.05;5.38;;;7.70;99.90;;;8.67;69.88;100713.81;5067766;28;20725;-74
2021/05/04 00:24:08;;;;;;;11.93;4.22;;;7.80;99.90;;;8.74;69.53;100707.53;5069925;28;20223;-73
2021/05/04 00:26:34;;;;;;;13.38;5.07;;;7.80;99.90;;;8.75;68.95;100704.88;5069396;28;20196;-74
2021/05/04 00:29:00;;;;;;;11.38;3.88;;;7.80;99.90;;;8.76;68.69;100698.75;5067443;28;20199;-72
2021/05/04 00:31:27;;;;;;;10.70;4.10;;;7.80;99.90;;;8.78;68.43;100707.38;5068042;28;20718;-74
2021/05/04 00:33:54;;;;;;;11.15;3.83;;;7.90;99.90;;;8.81;68.13;100695.97;5070125;28;20201;-73
2021/05/04 00:36:21;;;;;;;10.57;3.40;;;7.90;99.90;;;8.80;67.67;100687.31;5057775;28;20184;-73
2021/05/04 00:38:48;;;;;;;14.05;4.60;;;7.90;99.90;;;8.85;67.56;100695.00;5061483;28;20204;-74
2021/05/04 00:41:14;;;;;;;9.80;3.92;;;7.90;99.90;;;8.84;67.50;100681.09;5066583;28;20226;-74
2021/05/04 00:43:41;;;;;;;16.75;4.95;;;8.00;99.90;;;8.92;67.26;100687.81;5072293;28;20294;-75
2021/05/04 00:46:07;;;;;;;15.40;4.85;;;8.00;99.90;;;8.94;66.96;100668.63;5069129;28;20196;-74
2021/05/04 00:48:33;;;;;;;11.50;3.42;;;8.10;99.90;;;8.95;66.85;100666.84;5069754;28;20191;-74
2021/05/04 00:51:02;;;;;;;12.38;3.85;;;8.10;99.90;;;8.98;66.71;100667.59;5070143;28;20599;-74
2021/05/04 00:53:31;;;;;;;24.95;7.72;;;8.10;99.90;;;8.99;66.33;100658.91;5072265;28;20207;-73
2021/05/04 00:55:59;;;;;;;10.50;3.65;;;8.10;99.90;;;8.98;66.01;100646.72;5075160;28;20215;-73
2021/05/04 00:58:26;;;;;;;10.38;3.80;;;8.10;99.90;;;8.99;65.97;100648.47;5071927;28;20207;-74
2021/05/04 01:00:52;;;;;;;10.88;3.05;;;8.20;99.90;;;8.98;65.57;100644.13;5072372;28;20989;-74
2021/05/04 01:03:21;;;;;;;8.93;3.20;;;8.10;99.90;;;8.98;65.41;100628.47;5075286;28;20212;-74
2021/05/04 01:05:47;;;;;;;9.13;2.85;;;8.10;99.90;;;8.97;65.27;100638.94;5072043;28;20671;-74
2021/05/04 01:08:13;;;;;;;7.63;3.00;;;8.10;99.90;;;8.97;65.33;100629.38;5073960;28;20199;-75
2021/05/04 01:10:40;;;;;;;7.80;3.00;;;8.10;99.90;;;9.03;65.27;100623.09;5071946;28;20204;-74
2021/05/04 01:13:07;;;;;;;7.85;3.00;;;8.10;99.90;;;9.07;64.99;100616.88;5068371;28;20194;-74
2021/05/04 01:15:34;;;;;;;8.32;3.25;;;8.10;99.90;;;9.07;64.94;100611.66;5067363;28;20193;-73
2021/05/04 01:18:00;;;;;;;6.55;2.72;;;8.20;99.90;;;9.10;64.74;100603.72;5064325;28;20201;-74
2021/05/04 01:20:27;;;;;;;7.90;2.95;;;8.20;99.90;;;9.14;64.86;100605.34;5072681;28;20215;-74
2021/05/04 01:22:55;;;;;;;8.73;3.33;;;8.30;99.90;;;9.15;64.52;100596.59;5067162;28;20722;-74
2021/05/04 01:25:21;;;;;;;9.40;3.10;;;8.30;99.90;;;9.14;64.15;100589.66;5070073;28;20184;-73
2021/05/04 01:27:47;;;;;;;10.05;3.63;;;8.30;99.90;;;9.16;64.39;100583.47;5069059;28;20200;-73
2021/05/04 01:30:14;;;;;;;9.75;2.85;;;8.30;99.90;;;9.18;64.17;100580.81;5072095;28;20192;-73
2021/05/04 01:32:40;;;;;;;8.20;3.08;;;8.30;99.90;;;9.14;64.00;100585.31;5068846;28;20674;-72
2021/05/04 01:35:10;;;;;;;9.63;2.97;;;8.30;99.90;;;9.10;63.89;100583.69;5056076;28;20196;-72
2021/05/04 01:37:37;;;;;;;8.88;2.83;;;8.20;99.90;;;9.03;64.21;100576.09;5065726;28;20196;-72
2021/05/04 01:40:07;;;;;;;8.18;2.80;;;8.20;99.90;;;9.00;63.78;100561.41;5063880;28;20628;-72
2021/05/04 01:42:34;;;;;;;9.65;3.42;;;8.20;99.90;;;8.96;63.88;100558.97;5066491;28;20258;-72
2021/05/04 01:45:00;;;;;;;9.35;3.05;;;8.20;99.90;;;8.97;64.29;100553.69;5063054;28;20568;-72
2021/05/04 01:47:27;;;;;;;8.65;2.97;;;8.20;99.90;;;8.97;64.17;100545.00;5073446;28;20245;-72
2021/05/04 01:49:53;;;;;;;7.32;2.67;;;8.20;99.90;;;8.92;64.18;100547.78;5064843;28;20188;-73
2021/05/04 01:52:19;;;;;;;7.72;3.03;;;8.10;99.90;;;8.92;63.96;100537.34;5069298;28;20227;-71
2021/05/04 01:54:48;;;;;;;9.70;3.13;;;8.10;99.90;;;8.96;64.29;100536.31;5068826;28;20649;-72
2021/05/04 01:57:17;;;;;;;8.60;3.00;;;8.10;99.90;;;9.01;64.13;100526.56;5065416;28;20202;-72
2021/05/04 01:59:43;;;;;;;9.55;3.20;;;8.10;99.90;;;9.01;63.88;100523.13;5064280;28;20574;-72
2021/05/04 02:02:09;;;;;;;7.13;2.88;;;8.10;99.90;;;8.97;63.96;100517.16;5065514;28;20230;-74
2021/05/04 02:04:35;;;;;;;9.52;3.10;;;8.10;99.90;;;8.97;64.18;100519.78;5071490;28;20208;-72
2021/05/04 02:07:03;;;;;;;7.32;3.05;;;8.10;99.90;;;8.97;64.00;100513.69;5070881;28;20567;-72
2021/05/04 02:09:30;;;;;;;10.05;3.20;;;8.10;99.90;;;8.97;63.66;100503.25;5064860;28;20246;-73
2021/05/04 02:11:56;;;;;;;7.97;2.92;;;8.10;99.90;;;8.93;63.60;100493.81;5066327;28;20239;-73
2021/05/04 02:14:24;;;;;;;8.93;3.13;;;8.10;99.90;;;8.91;63.71;100493.03;5063717;28;20200;-72
2021/05/04 02:16:50;;;;;;;8.90;3.17;;;8.00;99.90;;;8.89;63.93;100485.28;5080134;28;20207;-72
2021/05/04 02:19:17;;;;;;;10.10;3.40;;;8.10;99.90;;;8.90;63.83;100484.34;5065352;28;20197;-72
2021/05/04 02:21:43;;;;;;;9.38;3.10;;;8.10;99.90;;;8.91;63.85;100480.81;5070789;28;20245;-72
2021/05/04 02:24:10;;;;;;;8.55;2.90;;;8.10;99.90;;;8.92;63.59;100469.50;5071066;28;20711;-72
2021/05/04 02:26:36;;;;;;;8.80;3.38;;;8.10;99.90;;;8.95;63.70;100458.94;5067298;28;20196;-72
2021/05/04 02:29:03;;;;;;;8.10;2.90;;;8.10;99.90;;;8.99;63.63;100460.56;5072472;28;20200;-72
2021/05/04 02:31:30;;;;;;;8.48;3.20;;;8.10;99.90;;;8.97;63.48;100457.16;5069202;28;20216;-72
2021/05/04 02:33:56;;;;;;;10.85;3.55;;;8.10;99.90;;;8.96;63.54;100445.00;5069511;28;20192;-72
2021/05/04 02:36:23;;;;;;;7.88;3.30;;;8.10;99.90;;;8.97;63.66;100446.72;5068934;28;20657;-72
2021/05/04 02:38:49;;;;;;;8.13;3.20;;;8.20;99.90;;;8.95;63.32;100435.47;5067679;28;20196;-73
2021/05/04 02:41:15;;;;;;;10.25;3.35;;;8.10;99.90;;;8.95;63.28;100432.00;5072686;28;20212;-73
2021/05/04 02:43:42;;;;;;;7.95;3.38;;;8.10;99.90;;;8.94;63.49;100422.47;5068641;28;20223;-72
2021/05/04 02:46:08;;;;;;;8.43;3.15;;;8.10;99.90;;;8.93;63.64;100411.19;5084737;28;20188;-72
2021/05/04 02:48:39;;;;;;;8.55;3.55;;;8.10;99.90;;;8.91;63.83;100407.78;5071062;28;20283;-72
2021/05/04 02:51:08;;;;;;;9.85;3.22;;;8.10;99.90;;;8.89;63.68;100401.78;5058118;28;20205;-73
2021/05/04 02:53:35;;;;;;;9.60;3.78;;;8.10;99.90;;;8.85;63.77;100397.56;5066307;28;20222;-72
2021/05/04 02:56:02;;;;;;;11.90;3.80;;;8.10;99.90;;;8.84;63.89;100386.28;5066239;28;20200;-71
2021/05/04 02:58:28;;;;;;;9.35;3.88;;;8.00;99.90;;;8.82;63.99;100374.22;5065700;28;20258;-73
2021/05/04 03:00:56;;;;;;;11.10;3.60;;;8.10;99.90;;;8.85;64.21;100379.31;5060534;28;20221;-72
2021/05/04 03:03:22;;;;;;;10.77;3.88;;;8.10;99.90;;;8.85;63.89;100369.72;5053595;28;20598;-72
2021/05/04 03:05:49;;;;;;;10.07;4.03;;;8.00;99.90;;;8.88;63.76;100359.19;5056699;28;20196;-72
2021/05/04 03:08:16;;;;;;;10.48;4.00;;;8.00;99.90;;;8.86;63.90;100347.06;5054864;28;20192;-73
2021/05/04 03:10:42;;;;;;;8.15;3.40;;;8.00;99.90;;;8.85;63.82;100343.66;5057507;28;20208;-73
2021/05/04 03:13:09;;;;;;;10.60;3.83;;;8.00;99.90;;;8.81;63.68;100336.81;5053310;28;20201;-73
2021/05/04 03:15:35;;;;;;;10.05;3.70;;;8.00;99.90;;;8.82;64.17;100327.25;5067019;28;20661;-73
2021/05/04 03:18:01;;;;;;;9.82;4.15;;;8.00;99.90;;;8.79;64.27;100314.31;5061994;28;20207;-73
2021/05/04 03:20:28;;;;;;;10.00;3.90;;;8.00;99.90;;;8.78;64.50;100318.69;5064609;28;20744;-72
2021/05/04 03:22:56;;;;;;;9.55;4.07;;;8.00;99.90;;;8.79;64.35;100312.53;5061748;28;20197;-72
2021/05/04 03:25:22;;;;;;;10.95;4.20;;;8.00;99.90;;;8.81;64.00;100310.72;5054723;28;20688;-73
2021/05/04 03:27:48;;;;;;;10.18;4.20;;;8.00;99.90;;;8.80;63.98;100297.75;5058938;28;20192;-72
2021/05/04 03:30:16;;;;;;;10.10;3.50;;;8.00;99.90;;;8.82;64.21;100302.00;5066399;28;20191;-71
2021/05/04 03:32:43;;;;;;;9.85;4.25;;;8.00;99.90;;;8.87;64.32;100294.00;5054105;28;20189;-73
2021/05/04 03:35:10;;;;;;;9.30;3.88;;;8.00;99.90;;;8.88;64.13;100285.25;5057064;28;20280;-72
2021/05/04 03:37:37;;;;;;;12.15;3.95;;;8.00;99.90;;;8.87;63.84;100281.78;5065827;28;20678;-72
2021/05/04 03:40:06;;;;;;;10.27;4.32;;;8.00;99.90;;;8.86;63.96;100276.63;5066733;28;20568;-72
2021/05/04 03:42:32;;;;;;;8.95;3.85;;;8.00;99.90;;;8.86;64.20;100274.03;5058768;28;20207;-73
2021/05/04 03:44:59;;;;;;;10.57;3.92;;;8.00;99.90;;;8.89;64.03;100268.72;5060386;28;20222;-73
2021/05/04 03:47:25;;;;;;;11.40;4.28;;;8.10;99.90;;;8.88;64.31;100248.75;5066471;28;20222;-72
2021/05/04 03:49:51;;;;;;;10.10;3.97;;;8.10;99.90;;;8.88;64.15;100252.22;5065288;28;20206;-72
2021/05/04 03:52:18;;;;;;;10.75;4.00;;;8.10;99.90;;;8.88;64.19;100244.38;5069357;28;20243;-75
2021/05/04 03:54:45;;;;;;;11.57;4.13;;;8.10;99.90;;;8.89;64.18;100233.03;5067382;28;20192;-72
2021/05/04 03:57:12;;;;;;;11.07;4.40;;;8.10;99.90;;;8.92;64.09;100226.00;5059575;28;20257;-73
2021/05/04 03:59:39;;;;;;;11.18;4.30;;;8.10;99.90;;;8.93;64.11;100223.31;5061522;28;20652;-74
2021/05/04 04:02:05;;;;;;;11.63;4.25;;;8.20;99.90;;;8.94;64.06;100216.34;5056553;28;20224;-72
2021/05/04 04:04:31;;;;;;;9.43;4.10;;;8.10;99.90;;;8.94;64.48;100209.38;5055641;28;20213;-71
2021/05/04 04:06:58;;;;;;;13.07;4.60;;;8.20;99.90;;;8.95;64.15;100202.38;5067468;28;20207;-72
2021/05/04 04:09:24;;;;;;;10.35;4.35;;;8.20;99.90;;;8.97;64.19;100198.81;5071869;28;20184;-72
2021/05/04 04:11:50;;;;;;;10.32;4.25;;;8.20;99.90;;;8.99;64.15;100193.53;5084871;28;20198;-72
2021/05/04 04:14:17;;;;;;;10.20;4.20;;;8.20;99.90;;;8.99;64.10;100191.78;5093165;28;20172;-72
2021/05/04 04:16:43;;;;;;;10.63;4.20;;;8.30;99.90;;;9.03;63.74;100185.53;5079759;28;20217;-71
2021/05/04 04:19:10;;;;;;;10.18;4.13;;;8.30;99.90;;;9.08;63.73;100178.34;5084746;28;20195;-72
2021/05/04 04:21:36;;;;;;;13.02;4.45;;;8.40;99.90;;;9.13;63.53;100178.16;5084670;28;20203;-74
2021/05/04 04:24:03;;;;;;;10.30;4.28;;;8.40;99.90;;;9.17;63.30;100172.78;5077718;28;20212;-71
2021/05/04 04:26:29;;;;;;;9.93;3.80;;;8.40;99.90;;;9.21;63.32;100169.09;5082398;28;20184;-72
2021/05/04 04:28:56;;;;;;;10.25;4.15;;;8.50;99.90;;;9.22;62.91;100160.38;5082820;28;20192;-72
2021/05/04 04:31:23;;;;;;;10.77;4.72;;;8.50;99.90;;;9.26;63.06;100155.88;5087173;28;20764;-72
2021/05/04 04:33:49;;;;;;;10.13;4.32;;;8.50;99.90;;;9.25;62.92;100152.41;5075526;28;20290;-72
2021/05/04 04:36:15;;;;;;;12.90;4.55;;;8.50;99.90;;;9.25;62.59;100152.41;5079794;28;20668;-73
2021/05/04 04:38:41;;;;;;;10.38;4.30;;;8.60;99.90;;;9.29;62.75;100146.19;5078858;28;20199;-73
2021/05/04 04:41:08;;;;;;;11.98;4.25;;;8.60;99.90;;;9.32;62.84;100145.19;5069011;28;20708;-72
2021/05/04 04:43:34;;;;;;;12.13;4.18;;;8.60;99.90;;;9.33;62.56;100137.28;5064399;28;20208;-71
2021/05/04 04:46:00;;;;;;;10.15;4.18;;;8.70;99.90;;;9.36;62.16;100126.69;5060492;28;20203;-73
2021/05/04 04:48:27;;;;;;;11.00;4.30;;;8.70;99.90;;;9.37;62.32;100130.16;5062527;28;20199;-72
2021/05/04 04:50:53;;;;;;;13.63;4.60;;;8.70;99.90;;;9.39;62.16;100126.59;5064215;28;20692;-72
2021/05/04 04:53:20;;;;;;;10.65;4.13;;;8.70;99.90;;;9.43;62.22;100122.06;5072039;28;20672;-72
2021/05/04 04:55:46;;;;;;;12.00;4.60;;;8.70;99.90;;;9.47;61.91;100121.91;5054745;28;20192;-72
2021/05/04 04:58:12;;;;;;;10.23;4.45;;;8.80;99.90;;;9.52;62.03;100111.25;5061482;28;20228;-72
2021/05/04 05:00:39;;;;;;;16.08;5.28;;;8.80;99.90;;;9.57;61.96;100107.53;5063558;28;20689;-72
2021/05/04 05:03:05;;;;;;;11.18;4.10;;;8.90;99.90;;;9.60;61.52;100089.09;5061939;28;20204;-71
2021/05/04 05:05:32;;;;;;;9.90;3.97;;;8.90;99.90;;;9.66;61.45;100096.66;5068335;28;20188;-72
2021/05/04 05:07:58;;;;;;;10.23;4.07;;;9.00;99.90;;;9.67;61.40;100093.16;5066241;28;20204;-73
2021/05/04 05:10:26;;;;;;;9.25;3.92;;;9.00;99.90;;;9.70;60.91;100084.31;5064157;28;20216;-72
2021/05/04 05:12:52;;;;;;;12.00;4.63;;;9.00;99.90;;;9.75;61.20;100075.34;5058280;28;20637;-72
2021/05/04 05:15:19;;;;;;;10.82;4.70;;;9.10;99.90;;;9.80;60.65;100073.38;5061455;28;20208;-72
2021/05/04 05:17:45;;;;;;;9.27;3.90;;;9.10;99.90;;;9.86;60.69;100057.41;5060143;28;20196;-72
2021/05/04 05:20:13;;;;;;;10.70;4.07;;;9.20;99.90;;;9.89;60.57;100054.69;5063967;28;20203;-71
2021/05/04 05:22:43;;;;;;;9.13;4.10;;;9.30;99.90;;;9.92;60.20;100044.09;5056223;28;20271;-73
2021/05/04 05:25:11;;;;;;;10.80;4.20;;;9.30;99.90;;;9.95;60.13;100043.94;5061702;28;20220;-72
2021/05/04 05:27:38;;;;;;;10.48;4.25;;;9.30;99.90;;;9.99;59.84;100040.28;5066154;28;20236;-72
2021/05/04 05:30:08;;;;;;;11.23;4.20;;;9.40;99.90;;;10.02;59.86;100023.59;5061460;28;20193;-71
2021/05/04 05:32:34;;;;;;;9.75;4.00;;;9.40;99.90;;;10.04;59.79;100012.16;5066828;28;20184;-73
2021/05/04 05:35:01;;;;;;;12.75;4.20;;;9.40;99.90;;;10.10;59.72;100008.44;5058758;28;20254;-71
2021/05/04 05:37:28;;;;;;;11.65;4.20;;;9.50;99.90;;;10.16;59.57;99994.22;5068997;28;20192;-72
2021/05/04 05:39:55;;;;;;;10.45;4.00;;;9.50;99.90;;;10.20;59.28;99990.56;5061797;28;20197;-74
2021/05/04 05:42:21;;;;;;;10.68;3.97;;;9.60;99.90;;;10.23;59.10;99986.00;5067516;28;20216;-72
2021/05/04 05:44:47;;;;;;;11.25;3.85;;;9.60;99.90;;;10.28;58.90;99972.75;5060569;28;20224;-73
2021/05/04 05:47:14;;;;;;;10.35;3.88;;;9.70;99.90;;;10.37;59.04;99975.75;5057473;28;20200;-72
2021/05/04 05:49:41;;;;;;;10.30;4.15;;;9.80;99.90;;;10.45;58.70;99965.75;5065127;28;20200;-72
2021/05/04 05:52:09;;;;;;;12.02;4.18;;;9.90;99.90;;;10.54;58.35;99959.22;5070188;28;20211;-72
2021/05/04 05:54:35;;;;;;;12.05;4.45;;;10.00;99.90;;;10.62;58.29;99941.34;5065129;28;22777;-72
2021/05/04 05:57:04;;;;;;;11.30;4.57;;;10.10;99.90;;;10.71;58.26;99947.00;5070077;28;20189;-73
2021/05/04 05:59:30;;;;;;;12.40;4.20;;;10.20;99.90;;;10.82;58.13;99947.28;5066855;28;20203;-70
2021/05/04 06:01:56;;;;;;;11.25;3.90;;;10.30;99.90;;;10.91;57.91;99930.25;5065569;28;20223;-73
2021/05/04 06:04:22;;;;;;;9.93;4.00;;;10.40;99.90;;;10.96;57.73;99925.63;5067104;28;20216;-72
2021/05/04 06:06:49;;;;;;;9.65;3.83;;;10.50;99.90;;;11.00;57.63;99911.47;5059328;28;20204;-71
2021/05/04 06:09:15;;;;;;;10.75;4.20;;;10.50;99.90;;;11.09;57.37;99911.81;5071154;28;20222;-72
2021/05/04 06:11:41;;;;;;;11.48;3.90;;;10.60;99.90;;;11.25;57.27;99901.41;5067379;28;20212;-72
2021/05/04 06:14:08;;;;;;;11.00;4.25;;;10.80;99.90;;;11.38;56.96;99894.56;5069034;28;20233;-71
2021/05/04 06:16:35;;;;;;;9.98;4.00;;;10.90;99.90;;;11.50;56.60;99883.41;5064322;28;20192;-72
2021/05/04 06:19:01;;;;;;;10.38;4.28;;;11.00;99.90;;;11.62;56.50;99874.03;5056972;28;20573;-72
2021/05/04 06:21:27;;;;;;;9.93;4.40;;;11.20;99.90;;;11.72;56.00;99868.22;5053290;28;20215;-71
2021/05/04 06:23:54;;;;;;;11.07;4.30;;;11.30;99.90;;;11.84;56.06;99853.59;5058018;28;20216;-71
2021/05/04 06:26:21;;;;;;;9.73;4.15;;;11.50;99.90;;;11.91;55.44;99855.75;5059129;28;20218;-72
2021/05/04 06:28:49;;;;;;;11.20;4.22;;;11.60;99.90;;;12.00;55.52;99836.91;5055009;28;20234;-71
2021/05/04 06:31:17;;;;;;;13.18;4.22;;;11.70;99.90;;;12.11;55.36;99831.00;5051875;28;20258;-71
2021/05/04 06:33:44;;;;;;;11.15;4.68;;;11.80;99.90;;;12.17;55.33;99823.63;5058850;28;20548;-72
2021/05/04 06:36:11;;;;;;;12.10;4.78;;;11.90;99.90;;;12.25;55.02;99810.06;5053182;28;20211;-72
2021/05/04 06:38:37;;;;;;;10.68;4.10;;;12.00;99.90;;;12.33;55.16;99800.81;5056490;28;20302;-71
2021/05/04 06:41:04;;;;;;;12.85;4.57;;;12.10;99.90;;;12.39;54.26;99795.19;5054059;28;20592;-73
2021/05/04 06:43:31;;;;;;;10.95;4.30;;;12.20;99.90;;;12.45;54.35;99792.22;5062242;28;20281;-74
2021/05/04 06:45:58;;;;;;;10.38;4.13;;;12.30;99.90;;;12.52;53.82;99782.19;5059733;28;20196;-72
2021/05/04 06:48:25;;;;;;;10.20;4.20;;;12.30;99.90;;;12.58;54.01;99774.78;5060078;28;20203;-73
2021/05/04 06:50:52;;;;;;;10.05;4.20;;;12.40;99.90;;;12.60;53.76;99769.44;5061172;28;20209;-72
2021/05/04 06:53:19;;;;;;;12.80;3.90;;;12.40;99.90;;;12.59;53.62;99760.72;5055441;28;21073;-72
2021/05/04 06:55:47;;;;;;;11.18;4.03;;;12.40;99.90;;;12.57;53.46;99764.38;5066463;28;20184;-73
2021/05/04 06:58:13;;;;;;;11.90;4.20;;;12.30;99.90;;;12.55;53.60;99747.88;5067317;28;20187;-73
2021/05/04 07:00:40;;;;;;;10.05;3.92;;;12.30;99.90;;;12.59;53.72;99760.72;5066246;28;20256;-72
2021/05/04 07:03:06;;;;;;;9.95;3.72;;;12.40;99.90;;;12.62;53.34;99755.28;5063492;28;20196;-72
2021/05/04 07:05:33;;;;;;;11.02;4.10;;;12.40;99.90;;;12.62;53.29;99763.16;5065278;28;20220;-73
2021/05/04 07:08:00;;;;;;;10.55;4.30;;;12.40;99.90;;;12.59;53.07;99754.66;5062171;28;20192;-73
2021/05/04 07:10:26;;;;;;;10.25;3.70;;;12.40;99.90;;;12.59;53.30;99754.66;5065997;28;20252;-74
2021/05/04 07:12:53;;;;;;;10.85;3.92;;;12.30;99.90;;;12.57;53.26;99744.22;5067341;28;20214;-71
2021/05/04 07:15:19;;;;;;;10.68;4.03;;;12.30;99.90;;;12.56;53.25;99734.66;5054259;28;20203;-70
2021/05/04 07:17:46;;;;;;;10.10;4.03;;;12.30;99.90;;;12.56;53.28;99737.28;5055260;28;20192;-71
2021/05/04 07:20:18;;;;;;;9.48;3.40;;;12.20;99.90;;;12.57;53.23;99738.97;5057306;28;20207;-71
2021/05/04 07:22:45;;;;;;;9.68;3.33;;;12.30;99.90;;;12.58;53.27;99740.66;5062065;28;20203;-71
2021/05/04 07:25:12;;;;;;;10.40;3.80;;;12.20;99.90;;;12.60;53.27;99751.91;5061414;28;20228;-70
2021/05/04 07:27:38;;;;;;;9.82;4.15;;;12.30;99.90;;;12.57;53.26;99759.97;5060099;28;20657;-71
2021/05/04 07:30:06;;;;;;;9.73;3.75;;;12.20;99.90;;;12.58;53.39;99774.78;5060657;28;20192;-70
2021/05/04 07:32:33;;;;;;;11.30;4.00;;;12.20;99.90;;;12.57;53.49;99778.31;5057490;28;20200;-71
2021/05/04 07:34:59;;;;;;;12.35;3.85;;;12.30;99.90;;;12.55;53.45;99774.97;5059706;28;20192;-73
2021/05/04 07:37:25;;;;;;;9.98;4.40;;;12.20;99.90;;;12.55;54.36;99795.97;5062313;28;20193;-74
2021/05/04 07:39:53;;;;;;;9.27;3.78;;;12.20;99.90;;;12.53;55.21;99770.75;5057470;28;20563;-74
2021/05/04 07:42:19;;;;;;;9.48;3.78;;;12.10;99.90;;;12.37;57.08;99770.81;5056266;28;20287;-73
2021/05/04 07:44:45;;;;;;;10.30;3.80;;;11.80;99.90;;;12.18;58.53;99759.75;5057918;28;20213;-77
2021/05/04 07:47:12;;;;;;;11.80;4.50;;;11.50;99.90;;;12.03;59.47;99759.81;5054456;28;20192;-74
2021/05/04 07:49:43;;;;;;;10.88;3.88;;;11.20;99.90;;;11.92;61.17;99775.34;5055666;28;20304;-73
2021/05/04 07:52:10;;;;;;;13.40;3.80;;;11.00;99.90;;;11.83;62.03;99784.59;5059557;28;20242;-71
2021/05/04 07:54:36;;;;;;;9.65;3.50;;;10.90;99.90;;;11.67;63.24;99767.22;5057114;28;20607;-72
2021/05/04 07:57:04;;;;;;;11.82;3.70;;;10.70;99.90;;;11.54;64.50;99759.16;5056924;28;20193;-72
2021/05/04 07:59:30;;;;;;;9.85;3.78;;;10.50;99.90;;;11.47;65.33;99738.66;5060273;28;20239;-72
2021/05/04 08:01:59;;;;;;;10.35;3.90;;;10.50;99.90;;;11.46;65.93;99739.56;5054746;28;20336;-71
2021/05/04 08:04:25;;;;;;;10.52;4.30;;;10.50;99.90;;;11.51;66.22;99732.28;5053755;28;20200;-70
2021/05/04 08:06:52;;;;;;;10.85;3.75;;;10.60;99.90;;;11.61;66.37;99731.69;5064012;28;20695;-72
2021/05/04 08:09:18;;;;;;;9.95;3.90;;;10.70;99.90;;;11.64;66.93;99721.03;5064751;28;20203;-73
2021/05/04 08:11:44;;;;;;;10.45;4.07;;;10.80;99.90;;;11.79;66.85;99714.09;5060563;28;20863;-73
2021/05/04 08:14:11;;;;;;;11.57;3.95;;;11.00;99.90;;;11.93;66.27;99704.47;5054667;28;20195;-71
2021/05/04 08:16:38;;;;;;;8.55;3.75;;;11.20;99.90;;;12.11;65.79;99713.00;5053669;28;20576;-74
2021/05/04 08:19:05;;;;;;;10.35;3.75;;;11.50;99.90;;;12.24;65.33;99688.56;5067473;28;20204;-71
2021/05/04 08:21:33;;;;;;;10.52;3.60;;;11.70;99.90;;;12.36;65.24;99684.34;5064981;28;20913;-71
2021/05/04 08:24:01;;;;;;;9.90;3.75;;;12.00;99.90;;;12.39;63.97;99685.00;5052596;28;20680;-73
2021/05/04 08:26:27;;;;;;;8.75;3.40;;;12.20;99.90;;;12.42;63.84;99674.31;5055399;28;20223;-71
2021/05/04 08:28:54;;;;;;;8.27;3.40;;;12.20;99.90;;;12.44;63.15;99671.63;5061193;28;20215;-71
2021/05/04 08:31:21;;;;;;;8.23;3.47;;;12.30;99.90;;;12.49;63.63;99665.13;5055992;28;20211;-72
2021/05/04 08:33:47;;;;;;;9.50;3.78;;;12.40;99.90;;;12.58;63.18;99661.94;5070737;28;20188;-71
2021/05/04 08:36:14;;;;;;;9.65;3.40;;;12.50;99.90;;;12.68;63.07;99648.22;5056543;28;20253;-70
2021/05/04 08:38:40;;;;;;;8.60;3.13;;;12.60;99.90;;;12.76;62.70;99656.47;5053990;28;20559;-73
2021/05/04 08:41:08;;;;;;;9.52;3.40;;;12.70;99.90;;;12.85;62.83;99634.84;5063163;28;20238;-71
2021/05/04 08:43:35;;;;;;;9.25;3.25;;;12.70;99.90;;;12.88;62.09;99650.44;5057502;28;20688;-71
2021/05/04 08:46:03;;;;;;;11.40;3.88;;;12.80;99.90;;;12.93;62.34;99643.09;5061529;28;20189;-71
2021/05/04 08:48:31;;;;;;;9.65;3.30;;;12.80;99.90;;;13.02;62.25;99637.28;5065656;28;20184;-71
2021/05/04 08:50:59;;;;;;;8.68;3.10;;;12.90;99.90;;;13.11;61.66;99632.25;5062973;28;20352;-70
2021/05/04 08:53:26;;;;;;;9.43;3.17;;;13.00;99.90;;;13.22;61.08;99618.41;5081366;28;20942;-72
2021/05/04 08:55:52;;;;;;;8.80;2.90;;;13.10;99.90;;;13.25;60.27;99612.94;5062260;28;20196;-71
2021/05/04 08:58:20;;;;;;;8.48;3.22;;;13.20;99.90;;;13.25;60.13;99616.44;5060125;28;20189;-72
2021/05/04 09:00:47;;;;;;;10.88;3.00;;;13.20;99.90;;;13.35;60.24;99609.63;5055464;28;20220;-71
2021/05/04 09:03:16;;;;;;;6.82;2.53;;;13.30;99.90;;;13.57;59.94;99599.34;5067029;28;20204;-71
2021/05/04 09:05:47;;;;;;;8.25;2.95;;;13.60;99.90;;;13.82;59.85;99614.28;5063505;28;20609;-73
2021/05/04 09:08:37;;;;;;;8.55;2.83;;;13.90;99.90;;;13.96;58.58;99601.03;5057204;28;20208;-73
2021/05/04 09:11:30;;;;;;;8.90;3.08;;;14.00;99.90;;;14.00;58.58;99591.97;5058146;28;20204;-71
2021/05/04 09:14:03;;;;;;;8.00;3.00;;;14.20;99.90;;;13.99;57.83;99590.28;5058648;28;20200;-73
2021/05/04 09:19:23;;;;;;;7.40;2.58;;;14.00;99.90;;;13.81;57.61;99587.13;5065973;28;20230;-72
2021/05/04 09:21:53;;;;;;;7.18;2.80;;;14.00;99.90;;;13.79;57.67;99583.78;5066053;28;20273;-72
2021/05/04 09:24:24;;;;;;;8.73;2.67;;;13.90;99.90;;;13.78;57.60;99581.28;5061715;28;20212;-71
2021/05/04 09:27:00;;;;;;;7.75;2.67;;;13.80;99.90;;;13.80;57.31;99569.69;5069770;28;20203;-71
2021/05/04 09:29:34;;;;;;;7.88;2.65;;;13.80;99.90;;;13.99;57.67;99569.25;5069455;28;20240;-71
2021/05/04 09:32:17;;;;;;;11.18;2.55;;;14.00;99.90;;;14.40;56.65;99555.81;5078359;28;20228;-72
2021/05/04 09:34:52;;;;;;;7.88;2.45;;;14.50;99.90;;;14.66;55.15;99560.88;5092019;28;20188;-72
2021/05/04 09:37:27;;;;;;;7.70;2.55;;;14.80;99.90;;;14.77;54.07;99541.63;5087553;28;20184;-72
2021/05/04 09:39:54;;;;;;;10.50;2.35;;;14.90;99.90;;;14.90;53.17;99550.34;5077027;28;20196;-72
2021/05/04 09:42:21;;;;;;;7.70;2.45;;;15.10;99.90;;;14.99;52.28;99547.84;5084263;28;21082;-72
2021/05/04 09:44:49;;;;;;;8.27;2.30;;;15.10;99.90;;;14.91;51.82;99533.56;5097947;28;20211;-73
2021/05/04 09:47:21;;;;;;;7.80;2.30;;;15.00;99.90;;;14.81;51.72;99532.56;5084463;28;20195;-71
2021/05/04 09:49:49;;;;;;;7.03;2.30;;;15.00;99.90;;;14.73;51.63;99527.03;5077299;28;20180;-72
2021/05/04 09:52:29;;;;;;;6.10;2.15;;;14.80;99.90;;;14.67;51.49;99530.94;5085562;28;20260;-72
2021/05/04 09:55:07;;;;;;;6.32;2.00;;;14.70;99.90;;;14.77;51.23;99521.41;5084717;28;20176;-73
2021/05/04 09:57:39;;;;;;;8.15;2.38;;;14.80;99.90;;;14.98;51.24;99522.47;5070934;28;20192;-72
2021/05/04 10:00:12;;;;;;;5.85;2.10;;;15.00;99.90;;;15.27;50.66;99522.06;5079141;28;20280;-73
2021/05/04 10:02:40;;;;;;;6.78;2.50;;;15.30;99.90;;;15.50;50.15;99518.53;5090277;28;20196;-71
2021/05/04 10:05:10;;;;;;;8.57;2.33;;;15.50;99.90;;;15.59;49.41;99516.00;5072337;28;20220;-73
2021/05/04 10:07:38;;;;;;;7.28;2.10;;;15.70;99.90;;;15.62;49.64;99509.66;5073154;28;20189;-71
2021/05/04 10:10:08;;;;;;;6.05;1.95;;;15.70;99.90;;;15.70;49.19;99502.00;5072117;28;20242;-70
2021/05/04 10:12:36;;;;;;;6.55;2.10;;;15.80;99.90;;;15.81;48.95;99510.75;5064811;28;20217;-71
2021/05/04 10:15:06;;;;;;;8.52;1.92;;;16.00;99.10;;;15.83;48.57;99502.72;5063235;28;20200;-72
2021/05/04 10:17:34;;;;;;;6.75;2.22;;;16.10;98.50;;;15.88;48.59;99506.66;5066774;28;20200;-71
2021/05/04 10:20:04;;;;;;;7.18;2.00;;;16.10;97.90;;;15.78;48.26;99496.94;5064906;28;20184;-70
2021/05/04 10:22:31;;;;;;;7.97;2.00;;;16.00;97.70;;;15.78;48.87;99502.22;5066440;28;20198;-72
2021/05/04 10:24:59;;;;;;;4.43;1.80;;;16.00;98.20;;;15.89;48.70;99513.63;5069360;28;20302;-73